In Rescue
 
Open Full Screen Window  High Contrast Mode
Wind Gusting 00 knots
05
August 09, 2020 8:10 PM EDT
Weather Information
Wind Direction
  210 °
Wind Speed
  05 kt (6 mph)
Wind Gust
  00 kt (0 mph)
Altimeter
29.99 in
Visibility
10 SM
Temperature
29° C
84° F
Dewpoint
20° C
68° F
Humidity
58%
Sky Condition
Scattered @ 5,000 ft
Scattered @ 4,400 ft
VFR

METAR KLWA 100010Z AUTO 21005KT 10SM SCT044 SCT050 29/20 A2999 RMK AO2 T02900204

FAA Disclaimer: The data displayed is for advisory purposes only and is not to be used for flight planning or operations.